sensor_id;sensor_type;location;lat;lon;timestamp;temperature;humidity
45837;DHT22;31548;51.420;-0.040;2024-03-25T00:00:16;6.90;99.90
45837;DHT22;31548;51.420;-0.040;2024-03-25T00:02:42;6.90;99.90
45837;DHT22;31548;51.420;-0.040;2024-03-25T00:05:08;6.90;99.90
45837;DHT22;31548;51.420;-0.040;2024-03-25T00:07:36;6.90;99.90
45837;DHT22;31548;51.420;-0.040;2024-03-25T00:10:03;6.90;99.90
45837;DHT22;31548;51.420;-0.040;2024-03-25T00:12:32;6.90;99.90
45837;DHT22;31548;51.420;-0.040;2024-03-25T00:14:58;6.90;99.90
45837;DHT22;31548;51.420;-0.040;2024-03-25T00:17:24;6.80;99.90
45837;DHT22;31548;51.420;-0.040;2024-03-25T00:19:51;6.80;99.90
45837;DHT22;31548;51.420;-0.040;2024-03-25T00:22:18;6.80;99.90
45837;DHT22;31548;51.420;-0.040;2024-03-25T00:24:46;6.80;99.90
45837;DHT22;31548;51.420;-0.040;2024-03-25T00:27:13;6.80;99.90
45837;DHT22;31548;51.420;-0.040;2024-03-25T00:29:39;6.80;99.90
45837;DHT22;31548;51.420;-0.040;2024-03-25T00:32:06;6.80;99.90
45837;DHT22;31548;51.420;-0.040;2024-03-25T00:34:33;6.80;99.90
45837;DHT22;31548;51.420;-0.040;2024-03-25T00:37:00;6.80;99.90
45837;DHT22;31548;51.420;-0.040;2024-03-25T00:39:27;6.90;99.90
45837;DHT22;31548;51.420;-0.040;2024-03-25T00:41:54;6.80;99.90
45837;DHT22;31548;51.420;-0.040;2024-03-25T00:44:20;6.90;99.90
45837;DHT22;31548;51.420;-0.040;2024-03-25T00:46:46;6.90;99.90
45837;DHT22;31548;51.420;-0.040;2024-03-25T00:49:13;6.80;99.90
45837;DHT22;31548;51.420;-0.040;2024-03-25T00:51:39;6.90;99.90
45837;DHT22;31548;51.420;-0.040;2024-03-25T00:54:06;6.80;99.90
45837;DHT22;31548;51.420;-0.040;2024-03-25T00:56:32;6.90;99.90
45837;DHT22;31548;51.420;-0.040;2024-03-25T00:58:58;6.80;99.90
45837;DHT22;31548;51.420;-0.040;2024-03-25T01:01:29;6.90;99.90
45837;DHT22;31548;51.420;-0.040;2024-03-25T01:03:55;6.90;99.90
45837;DHT22;31548;51.420;-0.040;2024-03-25T01:06:22;6.90;99.90
45837;DHT22;31548;51.420;-0.040;2024-03-25T01:08:49;7.00;99.90
45837;DHT22;31548;51.420;-0.040;2024-03-25T01:11:15;7.00;99.90
45837;DHT22;31548;51.420;-0.040;2024-03-25T01:13:41;7.00;99.90
45837;DHT22;31548;51.420;-0.040;2024-03-25T01:16:08;7.00;99.90
45837;DHT22;31548;51.420;-0.040;2024-03-25T01:18:34;7.10;99.90
45837;DHT22;31548;51.420;-0.040;2024-03-25T01:21:01;7.10;99.90
45837;DHT22;31548;51.420;-0.040;2024-03-25T01:23:27;7.10;99.90
45837;DHT22;31548;51.420;-0.040;2024-03-25T01:25:53;7.10;99.90
45837;DHT22;31548;51.420;-0.040;2024-03-25T01:28:19;7.10;99.90
45837;DHT22;31548;51.420;-0.040;2024-03-25T01:30:45;7.10;99.90
45837;DHT22;31548;51.420;-0.040;2024-03-25T01:33:12;7.10;99.90
45837;DHT22;31548;51.420;-0.040;2024-03-25T01:35:38;7.00;99.90
45837;DHT22;31548;51.420;-0.040;2024-03-25T01:38:04;7.00;99.90
45837;DHT22;31548;51.420;-0.040;2024-03-25T01:40:31;7.00;99.90
45837;DHT22;31548;51.420;-0.040;2024-03-25T01:42:58;6.90;99.90
45837;DHT22;31548;51.420;-0.040;2024-03-25T01:45:25;6.90;99.90
45837;DHT22;31548;51.420;-0.040;2024-03-25T01:47:53;6.80;99.90
45837;DHT22;31548;51.420;-0.040;2024-03-25T01:50:21;6.80;99.90
45837;DHT22;31548;51.420;-0.040;2024-03-25T01:52:48;6.80;99.90
45837;DHT22;31548;51.420;-0.040;2024-03-25T01:55:20;6.80;99.90
45837;DHT22;31548;51.420;-0.040;2024-03-25T01:57:48;6.70;99.90
45837;DHT22;31548;51.420;-0.040;2024-03-25T02:00:15;6.70;99.90
45837;DHT22;31548;51.420;-0.040;2024-03-25T02:02:45;6.70;99.90
45837;DHT22;31548;51.420;-0.040;2024-03-25T02:05:16;6.70;99.90
45837;DHT22;31548;51.420;-0.040;2024-03-25T02:07:43;6.60;99.90
45837;DHT22;31548;51.420;-0.040;2024-03-25T02:10:10;6.60;99.90
45837;DHT22;31548;51.420;-0.040;2024-03-25T02:12:44;6.50;99.90
45837;DHT22;31548;51.420;-0.040;2024-03-25T02:15:12;6.50;99.90
45837;DHT22;31548;51.420;-0.040;2024-03-25T02:17:41;6.50;99.90
45837;DHT22;31548;51.420;-0.040;2024-03-25T02:20:09;6.50;99.90
45837;DHT22;31548;51.420;-0.040;2024-03-25T02:22:36;6.50;99.90
45837;DHT22;31548;51.420;-0.040;2024-03-25T02:25:07;6.40;99.90
45837;DHT22;31548;51.420;-0.040;2024-03-25T02:27:37;6.50;99.90
45837;DHT22;31548;51.420;-0.040;2024-03-25T02:30:08;6.40;99.90
45837;DHT22;31548;51.420;-0.040;2024-03-25T02:32:35;6.40;99.90
45837;DHT22;31548;51.420;-0.040;2024-03-25T02:35:04;6.40;99.90
45837;DHT22;31548;51.420;-0.040;2024-03-25T02:37:32;6.30;99.90
45837;DHT22;31548;51.420;-0.040;2024-03-25T02:40:00;6.30;99.90
45837;DHT22;31548;51.420;-0.040;2024-03-25T02:42:28;6.30;99.90
45837;DHT22;31548;51.420;-0.040;2024-03-25T02:44:55;6.30;99.90
45837;DHT22;31548;51.420;-0.040;2024-03-25T02:47:22;6.30;99.90
45837;DHT22;31548;51.420;-0.040;2024-03-25T02:49:48;6.20;99.90
45837;DHT22;31548;51.420;-0.040;2024-03-25T02:52:15;6.30;99.90
45837;DHT22;31548;51.420;-0.040;2024-03-25T02:54:41;6.20;99.90
45837;DHT22;31548;51.420;-0.040;2024-03-25T02:57:07;6.20;99.90
45837;DHT22;31548;51.420;-0.040;2024-03-25T02:59:33;6.20;99.90
45837;DHT22;31548;51.420;-0.040;2024-03-25T03:02:00;6.10;99.90
45837;DHT22;31548;51.420;-0.040;2024-03-25T03:04:26;6.20;99.90
45837;DHT22;31548;51.420;-0.040;2024-03-25T03:06:52;6.10;99.90
45837;DHT22;31548;51.420;-0.040;2024-03-25T03:09:18;6.10;99.90
45837;DHT22;31548;51.420;-0.040;2024-03-25T03:11:45;6.10;99.90
45837;DHT22;31548;51.420;-0.040;2024-03-25T03:14:11;6.10;99.90
45837;DHT22;31548;51.420;-0.040;2024-03-25T03:16:37;6.10;99.90
45837;DHT22;31548;51.420;-0.040;2024-03-25T03:19:04;6.10;99.90
45837;DHT22;31548;51.420;-0.040;2024-03-25T03:21:32;6.10;99.90
45837;DHT22;31548;51.420;-0.040;2024-03-25T03:23:58;6.10;99.90
45837;DHT22;31548;51.420;-0.040;2024-03-25T03:26:24;6.10;99.90
45837;DHT22;31548;51.420;-0.040;2024-03-25T03:28:54;6.10;99.90
45837;DHT22;31548;51.420;-0.040;2024-03-25T03:31:20;6.10;99.90
45837;DHT22;31548;51.420;-0.040;2024-03-25T03:33:50;6.20;99.90
45837;DHT22;31548;51.420;-0.040;2024-03-25T03:36:17;6.20;99.90
45837;DHT22;31548;51.420;-0.040;2024-03-25T03:38:44;6.20;99.90
45837;DHT22;31548;51.420;-0.040;2024-03-25T03:41:10;6.10;99.90
45837;DHT22;31548;51.420;-0.040;2024-03-25T03:43:37;6.20;99.90
45837;DHT22;31548;51.420;-0.040;2024-03-25T03:46:03;6.20;99.90
45837;DHT22;31548;51.420;-0.040;2024-03-25T03:48:30;6.20;99.90
45837;DHT22;31548;51.420;-0.040;2024-03-25T03:50:56;6.20;99.90
45837;DHT22;31548;51.420;-0.040;2024-03-25T03:53:22;6.20;99.90
45837;DHT22;31548;51.420;-0.040;2024-03-25T03:55:55;6.20;99.90
45837;DHT22;31548;51.420;-0.040;2024-03-25T03:58:22;6.20;99.90
45837;DHT22;31548;51.420;-0.040;2024-03-25T04:00:49;6.20;99.90
45837;DHT22;31548;51.420;-0.040;2024-03-25T04:03:16;6.20;99.90
45837;DHT22;31548;51.420;-0.040;2024-03-25T04:05:42;6.20;99.90
45837;DHT22;31548;51.420;-0.040;2024-03-25T04:08:09;6.30;99.90
45837;DHT22;31548;51.420;-0.040;2024-03-25T04:10:36;6.30;99.90
45837;DHT22;31548;51.420;-0.040;2024-03-25T04:13:05;6.30;99.90
45837;DHT22;31548;51.420;-0.040;2024-03-25T04:15:35;6.30;99.90
45837;DHT22;31548;51.420;-0.040;2024-03-25T04:18:03;6.30;99.90
45837;DHT22;31548;51.420;-0.040;2024-03-25T04:20:35;6.40;99.90
45837;DHT22;31548;51.420;-0.040;2024-03-25T04:23:02;6.40;99.90
45837;DHT22;31548;51.420;-0.040;2024-03-25T04:25:28;6.40;99.90
45837;DHT22;31548;51.420;-0.040;2024-03-25T04:27:54;6.40;99.90
45837;DHT22;31548;51.420;-0.040;2024-03-25T04:30:20;6.40;99.90
45837;DHT22;31548;51.420;-0.040;2024-03-25T04:32:47;6.50;99.90
45837;DHT22;31548;51.420;-0.040;2024-03-25T04:35:13;6.50;99.90
45837;DHT22;31548;51.420;-0.040;2024-03-25T04:37:39;6.50;99.90
45837;DHT22;31548;51.420;-0.040;2024-03-25T04:40:08;6.50;99.90
45837;DHT22;31548;51.420;-0.040;2024-03-25T04:42:34;6.50;99.90
45837;DHT22;31548;51.420;-0.040;2024-03-25T04:45:00;6.50;99.90
45837;DHT22;31548;51.420;-0.040;2024-03-25T04:47:26;6.50;99.90
45837;DHT22;31548;51.420;-0.040;2024-03-25T04:49:53;6.50;99.90
45837;DHT22;31548;51.420;-0.040;2024-03-25T04:52:19;6.60;99.90
45837;DHT22;31548;51.420;-0.040;2024-03-25T04:54:49;6.60;99.90
45837;DHT22;31548;51.420;-0.040;2024-03-25T04:57:15;6.60;99.90
45837;DHT22;31548;51.420;-0.040;2024-03-25T04:59:42;6.60;99.90
45837;DHT22;31548;51.420;-0.040;2024-03-25T05:02:09;6.60;99.90
45837;DHT22;31548;51.420;-0.040;2024-03-25T05:04:35;6.70;99.90
45837;DHT22;31548;51.420;-0.040;2024-03-25T05:07:01;6.70;99.90
45837;DHT22;31548;51.420;-0.040;2024-03-25T05:09:27;6.70;99.90
45837;DHT22;31548;51.420;-0.040;2024-03-25T05:11:53;6.80;99.90
45837;DHT22;31548;51.420;-0.040;2024-03-25T05:14:20;6.80;99.90
45837;DHT22;31548;51.420;-0.040;2024-03-25T05:16:46;6.90;99.90
45837;DHT22;31548;51.420;-0.040;2024-03-25T05:19:12;6.80;99.90
45837;DHT22;31548;51.420;-0.040;2024-03-25T05:21:39;6.90;99.90
45837;DHT22;31548;51.420;-0.040;2024-03-25T05:24:07;6.90;99.90
45837;DHT22;31548;51.420;-0.040;2024-03-25T05:26:33;6.90;99.90
45837;DHT22;31548;51.420;-0.040;2024-03-25T05:28:59;7.00;99.90
45837;DHT22;31548;51.420;-0.040;2024-03-25T05:31:25;7.00;99.90
45837;DHT22;31548;51.420;-0.040;2024-03-25T05:33:52;7.00;99.90
45837;DHT22;31548;51.420;-0.040;2024-03-25T05:36:18;7.00;99.90
45837;DHT22;31548;51.420;-0.040;2024-03-25T05:38:44;7.00;99.90
45837;DHT22;31548;51.420;-0.040;2024-03-25T05:41:11;7.00;99.90
45837;DHT22;31548;51.420;-0.040;2024-03-25T05:43:37;7.00;99.90
45837;DHT22;31548;51.420;-0.040;2024-03-25T05:46:04;7.00;99.90
45837;DHT22;31548;51.420;-0.040;2024-03-25T05:48:30;7.10;99.90
45837;DHT22;31548;51.420;-0.040;2024-03-25T05:51:05;7.10;99.90
45837;DHT22;31548;51.420;-0.040;2024-03-25T05:53:32;7.10;99.90
45837;DHT22;31548;51.420;-0.040;2024-03-25T05:55:58;7.10;99.90
45837;DHT22;31548;51.420;-0.040;2024-03-25T05:58:25;7.10;99.90
45837;DHT22;31548;51.420;-0.040;2024-03-25T06:00:52;7.20;99.90
45837;DHT22;31548;51.420;-0.040;2024-03-25T06:03:21;7.10;99.90
45837;DHT22;31548;51.420;-0.040;2024-03-25T06:05:48;7.20;99.90
45837;DHT22;31548;51.420;-0.040;2024-03-25T06:08:14;7.20;99.90
45837;DHT22;31548;51.420;-0.040;2024-03-25T06:11:06;7.20;99.90
45837;DHT22;31548;51.420;-0.040;2024-03-25T06:13:33;7.20;99.90
45837;DHT22;31548;51.420;-0.040;2024-03-25T06:15:59;7.20;99.90
45837;DHT22;31548;51.420;-0.040;2024-03-25T06:18:26;7.20;99.90
45837;DHT22;31548;51.420;-0.040;2024-03-25T06:20:52;7.20;99.90
45837;DHT22;31548;51.420;-0.040;2024-03-25T06:23:26;7.20;99.90
45837;DHT22;31548;51.420;-0.040;2024-03-25T06:25:54;7.30;99.90
45837;DHT22;31548;51.420;-0.040;2024-03-25T06:28:20;7.30;99.90
45837;DHT22;31548;51.420;-0.040;2024-03-25T06:30:47;7.30;99.90
45837;DHT22;31548;51.420;-0.040;2024-03-25T06:33:32;7.40;99.90
45837;DHT22;31548;51.420;-0.040;2024-03-25T06:36:18;7.40;99.90
45837;DHT22;31548;51.420;-0.040;2024-03-25T06:38:45;7.40;99.90
45837;DHT22;31548;51.420;-0.040;2024-03-25T06:41:11;7.50;99.90
45837;DHT22;31548;51.420;-0.040;2024-03-25T06:43:38;7.60;99.90
45837;DHT22;31548;51.420;-0.040;2024-03-25T06:46:05;7.60;99.90
45837;DHT22;31548;51.420;-0.040;2024-03-25T06:48:32;7.70;99.90
45837;DHT22;31548;51.420;-0.040;2024-03-25T06:51:01;7.70;99.90
45837;DHT22;31548;51.420;-0.040;2024-03-25T06:53:30;7.80;99.90
45837;DHT22;31548;51.420;-0.040;2024-03-25T06:58:24;7.90;99.90
45837;DHT22;31548;51.420;-0.040;2024-03-25T07:00:52;7.90;99.90
45837;DHT22;31548;51.420;-0.040;2024-03-25T07:03:20;8.00;99.90
45837;DHT22;31548;51.420;-0.040;2024-03-25T07:05:51;8.00;99.90
45837;DHT22;31548;51.420;-0.040;2024-03-25T07:08:21;8.10;99.90
45837;DHT22;31548;51.420;-0.040;2024-03-25T07:10:48;8.10;99.90
45837;DHT22;31548;51.420;-0.040;2024-03-25T07:13:14;8.20;99.90
45837;DHT22;31548;51.420;-0.040;2024-03-25T07:15:42;8.20;99.90
45837;DHT22;31548;51.420;-0.040;2024-03-25T07:18:08;8.30;99.90
45837;DHT22;31548;51.420;-0.040;2024-03-25T07:20:36;8.30;99.90
45837;DHT22;31548;51.420;-0.040;2024-03-25T07:23:03;8.40;99.90
45837;DHT22;31548;51.420;-0.040;2024-03-25T07:25:30;8.40;99.90
45837;DHT22;31548;51.420;-0.040;2024-03-25T07:27:56;8.50;99.90
45837;DHT22;31548;51.420;-0.040;2024-03-25T07:30:22;8.50;99.90
45837;DHT22;31548;51.420;-0.040;2024-03-25T07:32:51;8.60;99.90
45837;DHT22;31548;51.420;-0.040;2024-03-25T07:35:17;8.60;99.90
45837;DHT22;31548;51.420;-0.040;2024-03-25T07:37:44;8.60;99.90
45837;DHT22;31548;51.420;-0.040;2024-03-25T07:40:11;8.70;99.90
45837;DHT22;31548;51.420;-0.040;2024-03-25T07:42:40;8.70;99.90
45837;DHT22;31548;51.420;-0.040;2024-03-25T07:45:06;8.80;99.90
45837;DHT22;31548;51.420;-0.040;2024-03-25T07:47:33;8.80;99.90
45837;DHT22;31548;51.420;-0.040;2024-03-25T07:49:59;8.90;99.90
45837;DHT22;31548;51.420;-0.040;2024-03-25T07:52:26;8.90;99.90
45837;DHT22;31548;51.420;-0.040;2024-03-25T07:54:53;9.00;99.90
45837;DHT22;31548;51.420;-0.040;2024-03-25T07:57:20;9.00;99.90
45837;DHT22;31548;51.420;-0.040;2024-03-25T07:59:47;9.00;99.90
45837;DHT22;31548;51.420;-0.040;2024-03-25T08:02:13;9.00;99.90
45837;DHT22;31548;51.420;-0.040;2024-03-25T08:04:40;9.10;99.90
45837;DHT22;31548;51.420;-0.040;2024-03-25T08:07:06;9.10;99.90
45837;DHT22;31548;51.420;-0.040;2024-03-25T08:09:33;9.20;99.90
45837;DHT22;31548;51.420;-0.040;2024-03-25T08:11:59;9.20;99.90
45837;DHT22;31548;51.420;-0.040;2024-03-25T08:14:25;9.30;99.90
45837;DHT22;31548;51.420;-0.040;2024-03-25T08:16:52;9.30;99.90
45837;DHT22;31548;51.420;-0.040;2024-03-25T08:19:18;9.30;99.90
45837;DHT22;31548;51.420;-0.040;2024-03-25T08:21:44;9.40;99.90
45837;DHT22;31548;51.420;-0.040;2024-03-25T08:24:11;9.40;99.90
45837;DHT22;31548;51.420;-0.040;2024-03-25T08:26:37;9.40;99.90
45837;DHT22;31548;51.420;-0.040;2024-03-25T08:29:04;9.50;99.90
45837;DHT22;31548;51.420;-0.040;2024-03-25T08:31:30;9.50;99.90
45837;DHT22;31548;51.420;-0.040;2024-03-25T08:33:56;9.60;99.90
45837;DHT22;31548;51.420;-0.040;2024-03-25T08:36:22;9.70;99.90
45837;DHT22;31548;51.420;-0.040;2024-03-25T08:38:49;9.80;99.90
45837;DHT22;31548;51.420;-0.040;2024-03-25T08:41:15;9.80;99.90
45837;DHT22;31548;51.420;-0.040;2024-03-25T08:43:42;9.80;99.90
45837;DHT22;31548;51.420;-0.040;2024-03-25T08:46:08;9.90;99.90
45837;DHT22;31548;51.420;-0.040;2024-03-25T08:48:34;10.00;99.90
45837;DHT22;31548;51.420;-0.040;2024-03-25T08:51:00;10.00;99.90
45837;DHT22;31548;51.420;-0.040;2024-03-25T08:53:27;10.10;99.90
45837;DHT22;31548;51.420;-0.040;2024-03-25T08:55:53;10.10;99.90
45837;DHT22;31548;51.420;-0.040;2024-03-25T08:58:19;10.20;99.90
45837;DHT22;31548;51.420;-0.040;2024-03-25T09:00:45;10.10;99.90
45837;DHT22;31548;51.420;-0.040;2024-03-25T09:03:11;10.20;99.90
45837;DHT22;31548;51.420;-0.040;2024-03-25T09:05:38;10.20;99.90
45837;DHT22;31548;51.420;-0.040;2024-03-25T09:08:08;10.20;99.90
45837;DHT22;31548;51.420;-0.040;2024-03-25T09:10:37;10.20;99.90
45837;DHT22;31548;51.420;-0.040;2024-03-25T09:13:22;10.20;99.90
45837;DHT22;31548;51.420;-0.040;2024-03-25T09:15:51;10.30;99.90
45837;DHT22;31548;51.420;-0.040;2024-03-25T09:18:20;10.20;99.90
45837;DHT22;31548;51.420;-0.040;2024-03-25T09:20:46;10.20;99.90
45837;DHT22;31548;51.420;-0.040;2024-03-25T09:23:13;10.10;99.90
45837;DHT22;31548;51.420;-0.040;2024-03-25T09:25:39;10.20;99.90
45837;DHT22;31548;51.420;-0.040;2024-03-25T09:28:05;10.20;99.90
45837;DHT22;31548;51.420;-0.040;2024-03-25T09:30:32;10.30;99.90
45837;DHT22;31548;51.420;-0.040;2024-03-25T09:32:58;10.30;99.90
45837;DHT22;31548;51.420;-0.040;2024-03-25T09:35:25;10.30;99.90
45837;DHT22;31548;51.420;-0.040;2024-03-25T09:37:51;10.30;99.90
45837;DHT22;31548;51.420;-0.040;2024-03-25T09:40:17;10.40;99.90
45837;DHT22;31548;51.420;-0.040;2024-03-25T09:42:48;10.40;99.90
45837;DHT22;31548;51.420;-0.040;2024-03-25T09:45:17;10.40;99.90
45837;DHT22;31548;51.420;-0.040;2024-03-25T09:47:47;10.40;99.90
45837;DHT22;31548;51.420;-0.040;2024-03-25T09:50:14;10.50;99.90
45837;DHT22;31548;51.420;-0.040;2024-03-25T09:52:46;10.60;99.90
45837;DHT22;31548;51.420;-0.040;2024-03-25T09:55:12;10.60;99.90
45837;DHT22;31548;51.420;-0.040;2024-03-25T09:57:39;10.60;99.90
45837;DHT22;31548;51.420;-0.040;2024-03-25T10:00:08;10.70;99.90
45837;DHT22;31548;51.420;-0.040;2024-03-25T10:02:44;10.80;99.90
45837;DHT22;31548;51.420;-0.040;2024-03-25T10:05:10;10.80;99.90
45837;DHT22;31548;51.420;-0.040;2024-03-25T10:07:36;10.90;99.90
45837;DHT22;31548;51.420;-0.040;2024-03-25T10:10:04;10.90;99.90
45837;DHT22;31548;51.420;-0.040;2024-03-25T10:12:31;10.90;99.90
45837;DHT22;31548;51.420;-0.040;2024-03-25T10:14:57;10.90;99.90
45837;DHT22;31548;51.420;-0.040;2024-03-25T10:17:24;10.80;99.90
45837;DHT22;31548;51.420;-0.040;2024-03-25T10:19:53;11.00;99.90
45837;DHT22;31548;51.420;-0.040;2024-03-25T10:22:20;11.00;99.90
45837;DHT22;31548;51.420;-0.040;2024-03-25T10:24:47;11.00;99.90
45837;DHT22;31548;51.420;-0.040;2024-03-25T10:27:18;11.00;99.90
45837;DHT22;31548;51.420;-0.040;2024-03-25T10:29:48;10.90;99.90
45837;DHT22;31548;51.420;-0.040;2024-03-25T10:32:14;10.90;99.90
45837;DHT22;31548;51.420;-0.040;2024-03-25T10:34:41;10.90;99.90
45837;DHT22;31548;51.420;-0.040;2024-03-25T10:37:10;10.90;99.90
45837;DHT22;31548;51.420;-0.040;2024-03-25T10:39:47;11.00;99.90
45837;DHT22;31548;51.420;-0.040;2024-03-25T10:42:18;11.10;99.90
45837;DHT22;31548;51.420;-0.040;2024-03-25T10:44:45;11.10;99.90
45837;DHT22;31548;51.420;-0.040;2024-03-25T10:47:21;11.10;99.90
45837;DHT22;31548;51.420;-0.040;2024-03-25T10:49:50;11.10;99.90
45837;DHT22;31548;51.420;-0.040;2024-03-25T10:52:18;11.10;99.90
45837;DHT22;31548;51.420;-0.040;2024-03-25T10:54:47;11.10;99.90
45837;DHT22;31548;51.420;-0.040;2024-03-25T10:57:17;11.20;99.90
45837;DHT22;31548;51.420;-0.040;2024-03-25T10:59:45;11.10;99.90
45837;DHT22;31548;51.420;-0.040;2024-03-25T11:02:12;11.10;99.90
45837;DHT22;31548;51.420;-0.040;2024-03-25T11:04:41;11.00;99.90
45837;DHT22;31548;51.420;-0.040;2024-03-25T11:07:09;11.10;99.90
45837;DHT22;31548;51.420;-0.040;2024-03-25T11:09:40;11.10;99.90
45837;DHT22;31548;51.420;-0.040;2024-03-25T11:12:09;11.10;99.90
45837;DHT22;31548;51.420;-0.040;2024-03-25T11:14:36;11.20;99.90
45837;DHT22;31548;51.420;-0.040;2024-03-25T11:17:03;11.10;99.90
45837;DHT22;31548;51.420;-0.040;2024-03-25T11:19:40;11.20;99.90
45837;DHT22;31548;51.420;-0.040;2024-03-25T11:22:10;11.30;99.90
45837;DHT22;31548;51.420;-0.040;2024-03-25T11:24:37;11.30;99.90
45837;DHT22;31548;51.420;-0.040;2024-03-25T11:27:07;11.40;99.90
45837;DHT22;31548;51.420;-0.040;2024-03-25T11:29:34;11.40;99.90
45837;DHT22;31548;51.420;-0.040;2024-03-25T11:32:05;11.40;99.90
45837;DHT22;31548;51.420;-0.040;2024-03-25T11:34:32;11.40;99.90
45837;DHT22;31548;51.420;-0.040;2024-03-25T11:36:58;11.40;99.90
45837;DHT22;31548;51.420;-0.040;2024-03-25T11:39:25;11.50;99.90
45837;DHT22;31548;51.420;-0.040;2024-03-25T11:41:53;11.50;99.90
45837;DHT22;31548;51.420;-0.040;2024-03-25T11:44:19;11.50;99.90
45837;DHT22;31548;51.420;-0.040;2024-03-25T11:46:49;11.60;99.90
45837;DHT22;31548;51.420;-0.040;2024-03-25T11:49:16;11.50;99.90
45837;DHT22;31548;51.420;-0.040;2024-03-25T11:51:45;11.60;99.90
45837;DHT22;31548;51.420;-0.040;2024-03-25T11:54:13;11.70;99.90
45837;DHT22;31548;51.420;-0.040;2024-03-25T11:56:40;11.70;99.90
45837;DHT22;31548;51.420;-0.040;2024-03-25T11:59:08;11.90;99.90
45837;DHT22;31548;51.420;-0.040;2024-03-25T12:01:35;12.20;99.90
45837;DHT22;31548;51.420;-0.040;2024-03-25T12:04:11;12.50;99.90
45837;DHT22;31548;51.420;-0.040;2024-03-25T12:06:38;12.80;99.90
45837;DHT22;31548;51.420;-0.040;2024-03-25T12:09:04;13.10;99.90
45837;DHT22;31548;51.420;-0.040;2024-03-25T12:11:49;13.10;99.90
45837;DHT22;31548;51.420;-0.040;2024-03-25T12:14:16;13.00;99.90
45837;DHT22;31548;51.420;-0.040;2024-03-25T12:16:42;13.00;99.90
45837;DHT22;31548;51.420;-0.040;2024-03-25T12:19:09;12.90;99.90
45837;DHT22;31548;51.420;-0.040;2024-03-25T12:21:37;12.90;99.90
45837;DHT22;31548;51.420;-0.040;2024-03-25T12:24:03;12.90;99.90
45837;DHT22;31548;51.420;-0.040;2024-03-25T12:26:31;12.80;99.90
45837;DHT22;31548;51.420;-0.040;2024-03-25T12:28:58;12.80;99.90
45837;DHT22;31548;51.420;-0.040;2024-03-25T12:31:24;12.80;99.90
45837;DHT22;31548;51.420;-0.040;2024-03-25T12:33:50;12.90;99.90
45837;DHT22;31548;51.420;-0.040;2024-03-25T12:36:17;12.80;99.90
45837;DHT22;31548;51.420;-0.040;2024-03-25T12:38:43;12.80;99.90
45837;DHT22;31548;51.420;-0.040;2024-03-25T12:41:10;12.90;99.90
45837;DHT22;31548;51.420;-0.040;2024-03-25T12:43:42;12.90;99.90
45837;DHT22;31548;51.420;-0.040;2024-03-25T12:46:10;12.90;99.90
45837;DHT22;31548;51.420;-0.040;2024-03-25T12:48:37;13.10;99.90
45837;DHT22;31548;51.420;-0.040;2024-03-25T12:51:03;13.20;99.90
45837;DHT22;31548;51.420;-0.040;2024-03-25T12:53:31;13.40;99.90
45837;DHT22;31548;51.420;-0.040;2024-03-25T12:55:57;13.50;99.90
45837;DHT22;31548;51.420;-0.040;2024-03-25T12:58:23;13.60;99.90
45837;DHT22;31548;51.420;-0.040;2024-03-25T13:00:49;13.70;99.90
45837;DHT22;31548;51.420;-0.040;2024-03-25T13:03:16;13.80;99.90
45837;DHT22;31548;51.420;-0.040;2024-03-25T13:05:43;13.80;99.90
45837;DHT22;31548;51.420;-0.040;2024-03-25T13:08:10;13.70;99.90
45837;DHT22;31548;51.420;-0.040;2024-03-25T13:10:36;13.70;99.90
45837;DHT22;31548;51.420;-0.040;2024-03-25T13:13:02;13.70;99.90
45837;DHT22;31548;51.420;-0.040;2024-03-25T13:15:31;13.60;99.90
45837;DHT22;31548;51.420;-0.040;2024-03-25T13:17:58;13.60;99.90
45837;DHT22;31548;51.420;-0.040;2024-03-25T13:20:24;13.70;99.90
45837;DHT22;31548;51.420;-0.040;2024-03-25T13:22:53;13.60;99.90
45837;DHT22;31548;51.420;-0.040;2024-03-25T13:25:23;13.50;99.90
45837;DHT22;31548;51.420;-0.040;2024-03-25T13:27:49;13.30;99.90
45837;DHT22;31548;51.420;-0.040;2024-03-25T13:30:15;13.30;99.90
45837;DHT22;31548;51.420;-0.040;2024-03-25T13:32:41;13.30;99.90
45837;DHT22;31548;51.420;-0.040;2024-03-25T13:35:08;13.40;99.90
45837;DHT22;31548;51.420;-0.040;2024-03-25T13:37:34;13.40;99.90
45837;DHT22;31548;51.420;-0.040;2024-03-25T13:40:00;13.40;99.90
45837;DHT22;31548;51.420;-0.040;2024-03-25T13:42:26;13.30;99.90
45837;DHT22;31548;51.420;-0.040;2024-03-25T13:44:53;13.30;99.90
45837;DHT22;31548;51.420;-0.040;2024-03-25T13:47:19;13.40;99.90
45837;DHT22;31548;51.420;-0.040;2024-03-25T13:49:45;13.30;99.90
45837;DHT22;31548;51.420;-0.040;2024-03-25T13:52:12;13.20;99.90
45837;DHT22;31548;51.420;-0.040;2024-03-25T13:54:38;13.40;99.90
45837;DHT22;31548;51.420;-0.040;2024-03-25T13:57:04;13.50;99.90
45837;DHT22;31548;51.420;-0.040;2024-03-25T13:59:31;13.50;99.90
45837;DHT22;31548;51.420;-0.040;2024-03-25T14:01:57;13.60;99.90
45837;DHT22;31548;51.420;-0.040;2024-03-25T14:04:23;13.60;99.90
45837;DHT22;31548;51.420;-0.040;2024-03-25T14:06:49;13.50;99.90
45837;DHT22;31548;51.420;-0.040;2024-03-25T14:09:25;13.40;99.90
45837;DHT22;31548;51.420;-0.040;2024-03-25T14:11:52;13.30;99.90
45837;DHT22;31548;51.420;-0.040;2024-03-25T14:14:19;13.50;99.90
45837;DHT22;31548;51.420;-0.040;2024-03-25T14:16:45;13.40;99.90
45837;DHT22;31548;51.420;-0.040;2024-03-25T14:19:11;13.50;99.90
45837;DHT22;31548;51.420;-0.040;2024-03-25T14:21:37;13.70;99.90
45837;DHT22;31548;51.420;-0.040;2024-03-25T14:24:05;14.00;99.90
45837;DHT22;31548;51.420;-0.040;2024-03-25T14:26:32;14.10;99.90
45837;DHT22;31548;51.420;-0.040;2024-03-25T14:28:58;14.10;99.90
45837;DHT22;31548;51.420;-0.040;2024-03-25T14:31:26;13.90;99.90
45837;DHT22;31548;51.420;-0.040;2024-03-25T14:33:54;13.80;99.90
45837;DHT22;31548;51.420;-0.040;2024-03-25T14:36:20;13.90;99.90
45837;DHT22;31548;51.420;-0.040;2024-03-25T14:38:47;13.90;99.90
45837;DHT22;31548;51.420;-0.040;2024-03-25T14:41:17;13.90;99.90
45837;DHT22;31548;51.420;-0.040;2024-03-25T14:43:44;13.80;99.90
45837;DHT22;31548;51.420;-0.040;2024-03-25T14:46:10;13.80;99.90
45837;DHT22;31548;51.420;-0.040;2024-03-25T14:48:36;13.80;99.90
45837;DHT22;31548;51.420;-0.040;2024-03-25T14:51:03;14.00;99.90
45837;DHT22;31548;51.420;-0.040;2024-03-25T14:53:30;14.00;99.90
45837;DHT22;31548;51.420;-0.040;2024-03-25T14:55:56;14.10;99.90
45837;DHT22;31548;51.420;-0.040;2024-03-25T14:58:22;13.90;99.90
45837;DHT22;31548;51.420;-0.040;2024-03-25T15:00:49;14.00;99.90
45837;DHT22;31548;51.420;-0.040;2024-03-25T15:03:15;13.90;99.90
45837;DHT22;31548;51.420;-0.040;2024-03-25T15:05:41;13.90;99.90
45837;DHT22;31548;51.420;-0.040;2024-03-25T15:08:08;13.90;99.90
45837;DHT22;31548;51.420;-0.040;2024-03-25T15:10:34;14.00;99.90
45837;DHT22;31548;51.420;-0.040;2024-03-25T15:13:01;13.90;99.90
45837;DHT22;31548;51.420;-0.040;2024-03-25T15:15:28;13.90;99.90
45837;DHT22;31548;51.420;-0.040;2024-03-25T15:17:54;13.80;99.90
45837;DHT22;31548;51.420;-0.040;2024-03-25T15:20:20;13.70;99.90
45837;DHT22;31548;51.420;-0.040;2024-03-25T15:22:46;13.70;99.90
45837;DHT22;31548;51.420;-0.040;2024-03-25T15:25:13;13.60;99.90
45837;DHT22;31548;51.420;-0.040;2024-03-25T15:27:39;13.40;99.90